Terminal Aerodrome Forecast
Issued by NWS

Home | Current Version | Previous Version | Text Only | Print | Product List | Glossary On
Versions: 1 2 3 4 5 6 7 8 9 10 11 12 13 14 15 16 17 18
318
FTUS41 KPBZ 251720
TAFAGC
TAF
KAGC 251720Z 2518/2618 24008KT P6SM BKN035
     FM260200 23005KT P6SM VCTS BKN035CB
     FM260500 24004KT P6SM BKN025
     FM261000 28004KT 5SM BR BKN015
     FM261400 30004KT P6SM SCT025=

USA.gov is the U.S. government's official web portal to all federal, state and local government web resources and services.